Porter, Texas
Current Conditions -  °F | °C
As of 9:53 AM on Wednesday 26 Nov 2014 (Local Time) from KIAH Reporting Station
Clear Clear  
Wind Chill: 62°   Ceiling: Unl
Heat Index: 62°   Visibility: 10mi
Dew Point: 35°   Wind: 9mph
Humidity: 37%   Direction: 220°SW
Pressure: 30.25"   Gusts: 18mph
Location:  30.1°N, 95.23°W
Report Text: KIAH 261553Z 22008G16KT 10SM CLR 17/02 A3025 RMK AO2 SLP242 T01670017
Loading
Personal Weather Stations






























Interactive Weather Map New forecast layout! Learn more

10-Day Weather Forecast

Advertisements
Track Severe Weather on mobile